createdAt,value
2019-02-17T00:00:18.612Z,8.95
2019-02-17T00:02:48.298Z,8.88
2019-02-17T00:05:18.041Z,8.76
2019-02-17T00:07:47.907Z,8.78
2019-02-17T00:10:17.460Z,8.54
2019-02-17T00:12:46.967Z,8.61
2019-02-17T00:15:16.751Z,8.54
2019-02-17T00:17:46.341Z,8.52
2019-02-17T00:20:16.994Z,8.45
2019-02-17T00:22:46.535Z,8.53
2019-02-17T00:25:17.607Z,8.57
2019-02-17T00:27:47.176Z,8.55
2019-02-17T00:30:16.806Z,8.51
2019-02-17T00:32:46.443Z,8.57
2019-02-17T00:35:15.943Z,8.55
2019-02-17T00:37:45.510Z,8.66
2019-02-17T00:40:15.322Z,8.66
2019-02-17T00:42:45.273Z,8.72
2019-02-17T00:45:14.760Z,8.78
2019-02-17T00:47:44.373Z,8.69
2019-02-17T00:50:14.023Z,8.68
2019-02-17T00:52:43.611Z,8.59
2019-02-17T00:55:13.219Z,8.51
2019-02-17T00:57:43.586Z,8.14
2019-02-17T01:00:14.038Z,8.15
2019-02-17T01:02:43.584Z,8.25
2019-02-17T01:05:13.403Z,8.43
2019-02-17T01:07:42.918Z,8.23
2019-02-17T01:10:12.672Z,8.36
2019-02-17T01:12:42.277Z,8.14
2019-02-17T01:15:13.316Z,8.01
2019-02-17T01:17:42.851Z,8.03
2019-02-17T01:20:12.581Z,8.08
2019-02-17T01:22:42.099Z,7.86
2019-02-17T01:25:12.282Z,7.90
2019-02-17T01:27:41.826Z,8.08
2019-02-17T01:30:15.680Z,7.78
2019-02-17T01:32:47.363Z,7.82
2019-02-17T01:35:17.011Z,7.90
2019-02-17T01:37:46.511Z,7.87
2019-02-17T01:40:16.044Z,7.76
2019-02-17T01:42:45.559Z,7.70
2019-02-17T01:45:15.239Z,7.69
2019-02-17T01:47:44.843Z,7.63
2019-02-17T01:50:14.499Z,7.33
2019-02-17T01:52:44.163Z,7.42
2019-02-17T01:55:14.505Z,7.38
2019-02-17T01:57:44.142Z,7.48
2019-02-17T02:00:16.244Z,7.57
2019-02-17T02:02:46.985Z,7.37
2019-02-17T02:05:17.330Z,7.41
2019-02-17T02:07:46.864Z,7.33
2019-02-17T02:10:17.585Z,7.49
2019-02-17T02:12:47.092Z,7.23
2019-02-17T02:15:16.682Z,7.08
2019-02-17T02:17:46.224Z,7.07
2019-02-17T02:20:15.914Z,6.98
2019-02-17T02:22:46.402Z,7.12
2019-02-17T02:25:16.024Z,7.22
2019-02-17T02:27:45.641Z,7.25
2019-02-17T02:30:15.743Z,7.10
2019-02-17T02:32:48.566Z,6.95
2019-02-17T02:35:18.087Z,6.80
2019-02-17T02:37:47.624Z,6.65
2019-02-17T02:40:17.212Z,6.63
2019-02-17T02:42:46.729Z,6.65
2019-02-17T02:45:16.373Z,6.41
2019-02-17T02:47:45.969Z,6.49
2019-02-17T02:50:15.496Z,6.52
2019-02-17T02:52:45.004Z,6.52
2019-02-17T02:55:14.765Z,6.36
2019-02-17T02:57:44.368Z,6.51
2019-02-17T03:00:14.517Z,6.37
2019-02-17T03:02:44.205Z,6.28
2019-02-17T03:05:13.878Z,6.19
2019-02-17T03:07:43.425Z,6.21
2019-02-17T03:10:13.164Z,6.29
2019-02-17T03:12:42.888Z,6.30
2019-02-17T03:15:12.601Z,6.35
2019-02-17T03:17:42.533Z,6.32
2019-02-17T03:20:12.272Z,6.15
2019-02-17T03:22:41.850Z,6.13
2019-02-17T03:25:14.363Z,6.05
2019-02-17T03:27:43.859Z,6.23
2019-02-17T03:30:13.457Z,6.25
2019-02-17T03:32:43.701Z,6.61
2019-02-17T03:35:13.282Z,6.47
2019-02-17T03:37:42.822Z,6.40
2019-02-17T03:40:12.543Z,6.37
2019-02-17T03:42:42.102Z,6.31
2019-02-17T03:45:11.990Z,6.09
2019-02-17T03:47:41.643Z,5.98
2019-02-17T03:50:11.220Z,6.15
2019-02-17T03:52:40.820Z,6.20
2019-02-17T03:55:10.494Z,6.06
2019-02-17T03:57:40.030Z,6.17
2019-02-17T04:00:16.832Z,6.31
2019-02-17T04:02:41.848Z,6.45
2019-02-17T04:05:11.386Z,6.56
2019-02-17T04:07:41.062Z,6.69
2019-02-17T04:10:10.782Z,6.74
2019-02-17T04:12:40.308Z,6.72
2019-02-17T04:15:10.303Z,6.48
2019-02-17T04:17:41.343Z,6.51
2019-02-17T04:20:10.947Z,6.54
2019-02-17T04:22:40.556Z,6.20
2019-02-17T04:25:10.302Z,6.14
2019-02-17T04:27:39.812Z,6.31
2019-02-17T04:30:09.923Z,6.41
2019-02-17T04:32:39.500Z,6.23
2019-02-17T04:35:09.010Z,6.37
2019-02-17T04:37:38.529Z,6.28
2019-02-17T04:40:08.428Z,6.31
2019-02-17T04:42:38.013Z,6.10
2019-02-17T04:45:08.660Z,6.03
2019-02-17T04:47:38.212Z,6.00
2019-02-17T04:50:09.824Z,6.16
2019-02-17T04:52:39.533Z,6.23
2019-02-17T04:55:10.320Z,6.19
2019-02-17T04:57:39.842Z,6.05
2019-02-17T05:00:10.908Z,5.93
2019-02-17T05:02:40.593Z,5.98
2019-02-17T05:05:10.677Z,6.02
2019-02-17T05:07:40.194Z,5.81
2019-02-17T05:10:09.874Z,5.87
2019-02-17T05:12:39.427Z,5.95
2019-02-17T05:15:10.195Z,5.93
2019-02-17T05:17:40.104Z,5.94
2019-02-17T05:20:10.357Z,5.76
2019-02-17T05:22:39.877Z,5.80
2019-02-17T05:25:09.483Z,5.96
2019-02-17T05:27:39.019Z,6.06
2019-02-17T05:30:11.466Z,6.07
2019-02-17T05:32:41.013Z,5.84
2019-02-17T05:35:10.665Z,5.70
2019-02-17T05:37:40.172Z,5.63
2019-02-17T05:40:10.370Z,5.81
2019-02-17T05:42:39.949Z,5.97
2019-02-17T05:45:09.699Z,6.02
2019-02-17T05:47:39.341Z,6.00
2019-02-17T05:50:09.415Z,5.89
2019-02-17T05:52:38.939Z,5.67
2019-02-17T05:55:08.643Z,5.84
2019-02-17T05:57:38.297Z,5.77
2019-02-17T06:00:12.273Z,5.75
2019-02-17T06:02:41.862Z,5.70
2019-02-17T06:05:11.379Z,5.65
2019-02-17T06:07:40.896Z,5.54
2019-02-17T06:10:11.212Z,5.43
2019-02-17T06:12:40.739Z,5.54
2019-02-17T06:15:10.874Z,5.69
2019-02-17T06:17:40.430Z,5.64
2019-02-17T06:20:11.881Z,5.70
2019-02-17T06:22:41.408Z,5.72
2019-02-17T06:25:11.516Z,5.64
2019-02-17T06:27:41.020Z,5.50
2019-02-17T06:30:10.822Z,5.55
2019-02-17T06:32:40.383Z,5.70
2019-02-17T06:35:10.436Z,5.70
2019-02-17T06:37:39.960Z,5.76
2019-02-17T06:40:10.012Z,5.75
2019-02-17T06:42:39.602Z,5.67
2019-02-17T06:45:10.765Z,5.67
2019-02-17T06:47:42.188Z,5.67
2019-02-17T06:50:12.010Z,5.69
2019-02-17T06:52:41.560Z,5.54
2019-02-17T06:55:25.062Z,5.61
2019-02-17T06:57:54.558Z,5.67
2019-02-17T07:00:25.800Z,5.69
2019-02-17T07:02:55.439Z,5.65
2019-02-17T07:05:32.677Z,5.59
2019-02-17T07:08:02.276Z,5.62
2019-02-17T07:10:31.790Z,5.68
2019-02-17T07:13:01.297Z,5.75
2019-02-17T07:15:32.500Z,5.84
2019-02-17T07:18:02.027Z,6.09
2019-02-17T07:20:31.600Z,6.10
2019-02-17T07:23:02.301Z,6.35
2019-02-17T07:25:31.807Z,6.63
2019-02-17T07:28:01.344Z,6.90
2019-02-17T07:30:30.964Z,7.27
2019-02-17T07:33:00.462Z,7.60
2019-02-17T07:35:30.046Z,7.67
2019-02-17T07:37:59.595Z,7.76
2019-02-17T07:40:29.176Z,8.17
2019-02-17T07:42:58.683Z,8.48
2019-02-17T07:45:28.298Z,9.13
2019-02-17T07:47:57.794Z,9.69
2019-02-17T07:50:27.305Z,10.13
2019-02-17T07:52:56.909Z,10.40
2019-02-17T07:55:26.484Z,10.68
2019-02-17T07:57:55.987Z,11.00
2019-02-17T08:00:25.593Z,11.82
2019-02-17T08:02:55.140Z,12.05
2019-02-17T08:05:24.643Z,11.58
2019-02-17T08:07:54.463Z,11.36
2019-02-17T08:10:23.989Z,12.00
2019-02-17T08:12:53.587Z,12.96
2019-02-17T08:15:23.132Z,13.09
2019-02-17T08:17:52.716Z,12.70
2019-02-17T08:20:22.287Z,12.19
2019-02-17T08:22:53.028Z,11.87
2019-02-17T08:25:22.642Z,11.55
2019-02-17T08:27:54.104Z,11.55
2019-02-17T08:30:24.668Z,11.62
2019-02-17T08:32:54.179Z,11.45
2019-02-17T08:35:23.697Z,11.47
2019-02-17T08:37:53.281Z,11.81
2019-02-17T08:40:22.851Z,12.18
2019-02-17T08:42:52.419Z,12.25
2019-02-17T08:45:22.025Z,12.43
2019-02-17T08:47:51.560Z,11.89
2019-02-17T08:50:21.147Z,12.28
2019-02-17T08:52:51.298Z,12.42
2019-02-17T08:55:20.954Z,12.33
2019-02-17T08:57:50.468Z,12.86
2019-02-17T09:00:20.033Z,14.08
2019-02-17T09:02:49.686Z,15.08
2019-02-17T09:05:19.187Z,16.82
2019-02-17T09:07:48.789Z,18.61
2019-02-17T09:10:18.368Z,19.00
2019-02-17T09:12:47.954Z,19.99
2019-02-17T09:15:18.617Z,21.95
2019-02-17T09:17:48.128Z,20.67
2019-02-17T09:20:17.650Z,22.24
2019-02-17T09:22:47.195Z,22.75
2019-02-17T09:25:16.740Z,24.28
2019-02-17T09:27:46.235Z,25.02
2019-02-17T09:30:19.135Z,25.47
2019-02-17T09:32:48.667Z,26.21
2019-02-17T09:35:18.167Z,26.20
2019-02-17T09:37:47.765Z,23.16
2019-02-17T09:40:17.292Z,22.73
2019-02-17T09:42:47.040Z,22.98
2019-02-17T09:45:18.101Z,25.64
2019-02-17T09:47:47.674Z,27.90
2019-02-17T09:50:17.252Z,28.67
2019-02-17T09:52:47.010Z,27.74
2019-02-17T09:55:16.932Z,27.77
2019-02-17T09:57:46.576Z,27.11
2019-02-17T10:00:17.404Z,28.13
2019-02-17T10:02:46.920Z,28.04
2019-02-17T10:05:16.652Z,28.70
2019-02-17T10:07:46.205Z,27.41
2019-02-17T10:10:20.790Z,28.34
2019-02-17T10:12:50.342Z,28.24
2019-02-17T10:15:20.004Z,27.56
2019-02-17T10:17:49.803Z,28.08
2019-02-17T10:20:19.332Z,26.61
2019-02-17T10:22:48.958Z,27.73
2019-02-17T10:25:18.486Z,28.37
2019-02-17T10:27:48.142Z,30.16
2019-02-17T10:30:19.588Z,31.28
2019-02-17T10:32:49.220Z,31.82
2019-02-17T10:35:18.765Z,32.48
2019-02-17T10:37:48.620Z,31.84
2019-02-17T10:40:20.166Z,30.88
2019-02-17T10:42:49.829Z,31.09
2019-02-17T10:45:19.358Z,28.94
2019-02-17T10:47:48.953Z,27.44
2019-02-17T10:50:18.522Z,26.56
2019-02-17T10:52:48.207Z,27.71
2019-02-17T10:55:17.871Z,27.12
2019-02-17T10:57:47.529Z,26.51
2019-02-17T11:00:22.464Z,27.14
2019-02-17T11:02:52.028Z,27.00
2019-02-17T11:05:21.914Z,27.61
2019-02-17T11:07:51.544Z,28.19
2019-02-17T11:10:21.256Z,28.85
2019-02-17T11:12:50.868Z,28.20
2019-02-17T11:15:21.909Z,27.70
2019-02-17T11:17:51.580Z,29.64
2019-02-17T11:20:21.178Z,31.22
2019-02-17T11:22:52.810Z,32.19
2019-02-17T11:25:22.420Z,32.00
2019-02-17T11:27:51.955Z,31.15
2019-02-17T11:30:22.480Z,32.22
2019-02-17T11:32:58.049Z,30.93
2019-02-17T11:35:23.361Z,31.88
2019-02-17T11:37:53.012Z,31.28
2019-02-17T11:40:22.724Z,32.12
2019-02-17T11:42:52.332Z,32.82
2019-02-17T11:45:21.938Z,31.86
2019-02-17T11:47:51.544Z,32.84
2019-02-17T11:50:21.075Z,32.98
2019-02-17T11:52:50.697Z,32.40
2019-02-17T11:55:20.225Z,32.22
2019-02-17T11:57:51.491Z,32.69
2019-02-17T12:00:23.345Z,32.03
2019-02-17T12:02:55.877Z,31.27
2019-02-17T12:05:25.470Z,31.37
2019-02-17T12:07:56.242Z,32.30
2019-02-17T12:10:25.777Z,32.78
2019-02-17T12:12:55.371Z,31.69
2019-02-17T12:15:25.325Z,32.67
2019-02-17T12:17:54.875Z,32.85
2019-02-17T12:20:42.195Z,30.20
2019-02-17T12:23:13.342Z,30.08
2019-02-17T12:25:44.506Z,30.08
2019-02-17T12:28:18.357Z,31.32
2019-02-17T12:30:49.572Z,31.30
2019-02-17T12:33:21.665Z,31.66
2019-02-17T12:35:50.660Z,31.14
2019-02-17T12:38:20.278Z,31.08
2019-02-17T12:40:49.899Z,28.87
2019-02-17T12:43:19.823Z,29.80
2019-02-17T12:45:50.496Z,32.66
2019-02-17T12:48:32.676Z,33.21
2019-02-17T12:51:02.224Z,31.00
2019-02-17T12:53:31.725Z,31.02
2019-02-17T12:56:01.339Z,31.39
2019-02-17T12:58:30.876Z,32.91
2019-02-17T13:01:00.478Z,31.01
2019-02-17T13:03:30.040Z,31.13
2019-02-17T13:05:59.677Z,31.31
2019-02-17T13:08:29.165Z,30.18
2019-02-17T13:11:02.499Z,29.53
2019-02-17T13:13:34.713Z,29.89
2019-02-17T13:16:04.659Z,30.26
2019-02-17T13:18:34.827Z,29.76
2019-02-17T13:21:07.586Z,29.80
2019-02-17T13:23:37.194Z,32.01
2019-02-17T13:26:06.811Z,31.89
2019-02-17T13:28:36.434Z,30.98
2019-02-17T13:31:06.043Z,29.78
2019-02-17T13:33:39.086Z,29.93
2019-02-17T13:36:07.404Z,29.56
2019-02-17T13:38:37.062Z,28.58
2019-02-17T13:41:06.684Z,29.12
2019-02-17T13:43:36.210Z,28.11
2019-02-17T13:46:05.875Z,28.95
2019-02-17T13:48:35.734Z,28.00
2019-02-17T13:51:05.328Z,28.91
2019-02-17T13:53:34.921Z,28.23
2019-02-17T13:56:04.658Z,28.64
2019-02-17T13:58:34.227Z,28.37
2019-02-17T14:01:03.834Z,28.80
2019-02-17T14:03:33.465Z,28.66
2019-02-17T14:06:03.060Z,29.04
2019-02-17T14:08:32.600Z,27.57
2019-02-17T14:11:02.234Z,28.26
2019-02-17T14:13:31.753Z,27.62
2019-02-17T14:16:01.393Z,26.63
2019-02-17T14:18:31.109Z,26.73
2019-02-17T14:21:00.650Z,26.75
2019-02-17T14:23:30.147Z,26.74
2019-02-17T14:25:59.693Z,26.11
2019-02-17T14:28:29.389Z,26.17
2019-02-17T14:30:58.927Z,25.78
2019-02-17T14:33:28.445Z,26.21
2019-02-17T14:35:57.984Z,26.15
2019-02-17T14:38:27.648Z,26.67
2019-02-17T14:40:57.339Z,25.85
2019-02-17T14:43:26.869Z,25.22
2019-02-17T14:45:56.372Z,24.85
2019-02-17T14:48:25.950Z,24.45
2019-02-17T14:50:55.528Z,24.99
2019-02-17T14:53:25.130Z,25.17
2019-02-17T14:55:54.684Z,23.82
2019-02-17T14:58:24.247Z,24.20
2019-02-17T15:00:53.901Z,22.97
2019-02-17T15:03:23.888Z,22.49
2019-02-17T15:05:53.791Z,22.46
2019-02-17T15:08:23.694Z,22.18
2019-02-17T15:10:53.323Z,21.53
2019-02-17T15:13:24.691Z,21.38
2019-02-17T15:15:54.347Z,20.91
2019-02-17T15:18:24.017Z,20.59
2019-02-17T15:20:53.629Z,20.41
2019-02-17T15:23:23.649Z,19.85
2019-02-17T15:25:55.033Z,19.62
2019-02-17T15:28:24.633Z,19.63
2019-02-17T15:30:54.154Z,19.52
2019-02-17T15:33:23.709Z,19.31
2019-02-17T15:35:53.218Z,19.58
2019-02-17T15:38:23.045Z,18.96
2019-02-17T15:40:52.600Z,18.35
2019-02-17T15:43:22.201Z,18.27
2019-02-17T15:45:51.729Z,18.26
2019-02-17T15:48:21.565Z,18.20
2019-02-17T15:50:51.445Z,18.10
2019-02-17T15:53:21.005Z,18.04
2019-02-17T15:55:50.942Z,17.96
2019-02-17T15:58:20.934Z,17.86
2019-02-17T16:00:50.455Z,17.75
2019-02-17T16:03:21.385Z,17.59
2019-02-17T16:05:50.938Z,17.46
2019-02-17T16:08:20.538Z,17.28
2019-02-17T16:10:50.598Z,16.93
2019-02-17T16:13:20.161Z,16.96
2019-02-17T16:15:49.724Z,16.92
2019-02-17T16:18:19.296Z,17.03
2019-02-17T16:20:48.901Z,17.01
2019-02-17T16:23:18.531Z,16.79
2019-02-17T16:25:48.224Z,16.53
2019-02-17T16:28:18.619Z,16.39
2019-02-17T16:30:48.192Z,16.39
2019-02-17T16:33:19.701Z,16.06
2019-02-17T16:35:49.214Z,16.09
2019-02-17T16:38:18.796Z,15.96
2019-02-17T16:40:48.783Z,15.79
2019-02-17T16:43:18.473Z,15.74
2019-02-17T16:45:48.108Z,15.73
2019-02-17T16:48:17.797Z,15.51
2019-02-17T16:50:47.390Z,15.54
2019-02-17T16:53:17.090Z,15.63
2019-02-17T16:55:47.235Z,15.43
2019-02-17T16:58:16.883Z,14.99
2019-02-17T17:00:46.665Z,14.78
2019-02-17T17:03:16.400Z,14.75
2019-02-17T17:05:45.916Z,14.72
2019-02-17T17:08:15.684Z,14.96
2019-02-17T17:10:45.322Z,14.91
2019-02-17T17:13:16.315Z,14.73
2019-02-17T17:15:46.286Z,14.72
2019-02-17T17:18:18.698Z,14.76
2019-02-17T17:20:48.228Z,14.71
2019-02-17T17:23:17.979Z,14.53
2019-02-17T17:25:47.574Z,14.59
2019-02-17T17:28:17.628Z,14.70
2019-02-17T17:30:47.165Z,14.57
2019-02-17T17:33:17.331Z,14.61
2019-02-17T17:35:48.571Z,14.55
2019-02-17T17:38:18.178Z,14.51
2019-02-17T17:40:48.083Z,14.11
2019-02-17T17:43:17.875Z,14.04
2019-02-17T17:45:47.396Z,14.01
2019-02-17T17:48:17.040Z,14.00
2019-02-17T17:50:46.696Z,13.93
2019-02-17T17:53:16.356Z,13.87
2019-02-17T17:55:45.920Z,14.00
2019-02-17T17:58:15.574Z,13.91
2019-02-17T18:00:45.075Z,13.70
2019-02-17T18:03:14.715Z,13.64
2019-02-17T18:05:44.308Z,13.68
2019-02-17T18:08:13.969Z,13.62
2019-02-17T18:10:43.590Z,13.52
2019-02-17T18:13:13.155Z,13.61
2019-02-17T18:15:42.768Z,13.67
2019-02-17T18:18:12.315Z,13.44
2019-02-17T18:20:41.997Z,13.25
2019-02-17T18:23:11.510Z,12.92
2019-02-17T18:25:42.261Z,12.89
2019-02-17T18:28:11.806Z,12.99
2019-02-17T18:30:41.339Z,12.85
2019-02-17T18:33:11.005Z,12.87
2019-02-17T18:35:41.010Z,12.94
2019-02-17T18:38:10.549Z,12.84
2019-02-17T18:40:46.084Z,13.02
2019-02-17T18:43:11.772Z,13.08
2019-02-17T18:45:41.277Z,13.07
2019-02-17T18:48:11.049Z,12.96
2019-02-17T18:50:40.579Z,12.90
2019-02-17T18:53:10.167Z,12.91
2019-02-17T18:55:39.800Z,12.94
2019-02-17T18:58:09.308Z,13.04
2019-02-17T19:00:38.900Z,12.91
2019-02-17T19:03:08.451Z,12.77
2019-02-17T19:05:38.042Z,12.88
2019-02-17T19:08:07.648Z,12.68
2019-02-17T19:10:37.757Z,12.74
2019-02-17T19:13:07.381Z,12.52
2019-02-17T19:15:37.052Z,12.59
2019-02-17T19:18:06.712Z,12.64
2019-02-17T19:20:39.812Z,12.39
2019-02-17T19:23:09.798Z,12.29
2019-02-17T19:25:39.485Z,12.02
2019-02-17T19:28:09.079Z,12.06
2019-02-17T19:30:38.584Z,11.83
2019-02-17T19:33:08.139Z,11.59
2019-02-17T19:35:42.069Z,11.41
2019-02-17T19:38:08.975Z,11.30
2019-02-17T19:40:38.567Z,11.35
2019-02-17T19:43:08.147Z,11.33
2019-02-17T19:45:40.492Z,11.28
2019-02-17T19:48:10.965Z,11.25
2019-02-17T19:50:40.554Z,11.44
2019-02-17T19:53:10.079Z,11.39
2019-02-17T19:55:39.705Z,11.36
2019-02-17T19:58:09.257Z,11.49
2019-02-17T20:00:38.900Z,11.41
2019-02-17T20:03:28.461Z,11.55
2019-02-17T20:05:59.635Z,11.45
2019-02-17T20:08:29.193Z,11.37
2019-02-17T20:10:58.917Z,11.36
2019-02-17T20:13:28.617Z,11.06
2019-02-17T20:15:58.207Z,11.25
2019-02-17T20:18:27.796Z,11.17
2019-02-17T20:20:57.306Z,11.13
2019-02-17T20:23:27.043Z,11.09
2019-02-17T20:25:57.954Z,11.09
2019-02-17T20:28:40.557Z,10.95
2019-02-17T20:30:58.809Z,10.83
2019-02-17T20:33:28.419Z,10.70
2019-02-17T20:36:02.700Z,10.49
2019-02-17T20:38:29.612Z,10.48
2019-02-17T20:41:01.510Z,10.59
2019-02-17T20:43:30.995Z,10.58
2019-02-17T20:46:00.600Z,10.53
2019-02-17T20:48:30.157Z,10.54
2019-02-17T20:50:59.650Z,10.46
2019-02-17T20:53:29.226Z,10.58
2019-02-17T20:55:58.948Z,10.66
2019-02-17T20:58:28.600Z,10.70
2019-02-17T21:00:58.181Z,10.63
2019-02-17T21:03:27.951Z,10.58
2019-02-17T21:05:57.764Z,10.33
2019-02-17T21:08:27.513Z,10.29
2019-02-17T21:10:57.134Z,10.23
2019-02-17T21:13:26.699Z,10.25
2019-02-17T21:15:56.300Z,10.25
2019-02-17T21:18:25.845Z,10.24
2019-02-17T21:20:55.420Z,10.01
2019-02-17T21:23:25.056Z,9.81
2019-02-17T21:25:58.320Z,9.87
2019-02-17T21:28:27.858Z,9.60
2019-02-17T21:30:57.360Z,9.66
2019-02-17T21:33:26.997Z,9.77
2019-02-17T21:35:56.569Z,9.66
2019-02-17T21:38:26.217Z,9.45
2019-02-17T21:40:55.755Z,9.54
2019-02-17T21:43:25.256Z,9.48
2019-02-17T21:45:54.763Z,9.42
2019-02-17T21:48:26.350Z,9.22
2019-02-17T21:50:56.010Z,9.26
2019-02-17T21:53:25.568Z,9.41
2019-02-17T21:55:55.660Z,9.29
2019-02-17T21:58:25.533Z,9.36
2019-02-17T22:00:55.060Z,9.51
2019-02-17T22:03:24.660Z,9.33
2019-02-17T22:05:54.225Z,9.37
2019-02-17T22:08:23.787Z,9.34
2019-02-17T22:10:54.423Z,9.40
2019-02-17T22:13:23.941Z,9.25
2019-02-17T22:15:53.516Z,9.04
2019-02-17T22:18:23.107Z,8.97
2019-02-17T22:20:52.630Z,9.08
2019-02-17T22:23:22.265Z,9.05
2019-02-17T22:25:51.849Z,9.10
2019-02-17T22:28:21.392Z,9.14
2019-02-17T22:30:50.960Z,9.25
2019-02-17T22:33:21.340Z,9.12
2019-02-17T22:35:50.854Z,8.85
2019-02-17T22:38:20.363Z,8.99
2019-02-17T22:40:49.929Z,8.95
2019-02-17T22:43:19.466Z,9.06
2019-02-17T22:45:48.981Z,8.97
2019-02-17T22:48:18.576Z,8.84
2019-02-17T22:50:48.102Z,8.77
2019-02-17T22:53:17.631Z,8.90
2019-02-17T22:55:47.425Z,8.69
2019-02-17T22:58:17.056Z,8.82
2019-02-17T23:00:59.938Z,8.79
2019-02-17T23:03:30.984Z,8.64
2019-02-17T23:06:00.561Z,8.65
2019-02-17T23:08:30.099Z,8.48
2019-02-17T23:10:59.680Z,8.61
2019-02-17T23:13:29.201Z,8.52
2019-02-17T23:15:59.905Z,8.43
2019-02-17T23:18:30.076Z,8.33
2019-02-17T23:20:59.580Z,8.35
2019-02-17T23:23:29.671Z,8.38
2019-02-17T23:25:59.245Z,8.31
2019-02-17T23:28:30.649Z,8.20
2019-02-17T23:31:00.693Z,8.35
2019-02-17T23:33:30.559Z,8.39
2019-02-17T23:36:00.070Z,8.27
2019-02-17T23:38:29.631Z,8.27
2019-02-17T23:40:59.204Z,8.25
2019-02-17T23:43:29.926Z,8.27
2019-02-17T23:46:00.760Z,8.41
2019-02-17T23:48:30.276Z,8.43
2019-02-17T23:50:59.783Z,8.23
2019-02-17T23:53:30.292Z,8.23
2019-02-17T23:55:59.806Z,8.20
2019-02-17T23:58:29.316Z,8.13
